Time;durP1;ratioP1;P1;durP2;ratioP2;P2;SDS_P1;SDS_P2;PMS_P1;PMS_P2;Temp;Humidity;BMP_temperature;BMP_pressure;BME280_temperature;BME280_humidity;BME280_pressure;Samples;Min_cycle;Max_cycle;Signal;HPM_P1;HPM_P2
2023/01/14 00:01:30;;;;;;;6.40;5.67;;;9.30;99.90;;;;;;6102681;23;20165;-90
2023/01/14 00:03:58;;;;;;;5.90;5.30;;;9.20;99.90;;;;;;6103997;23;20513;-89
2023/01/14 00:06:31;;;;;;;5.73;5.07;;;9.30;99.90;;;;;;6103954;23;20610;-89
2023/01/14 00:09:02;;;;;;;5.23;4.40;;;9.30;99.90;;;;;;6102775;23;20164;-89
2023/01/14 00:11:48;;;;;;;4.50;4.10;;;9.20;99.90;;;;;;6100269;23;20562;-89
2023/01/14 00:14:22;;;;;;;4.37;3.97;;;9.30;99.90;;;;;;6101327;23;20161;-89
2023/01/14 00:16:53;;;;;;;4.77;3.83;;;9.30;99.90;;;;;;6103572;23;20243;-89
2023/01/14 00:19:20;;;;;;;4.90;3.67;;;9.30;99.90;;;;;;6104672;23;20153;-89
2023/01/14 00:21:47;;;;;;;5.23;4.20;;;9.20;99.90;;;;;;6103031;23;20589;-91
2023/01/14 00:24:15;;;;;;;4.43;2.80;;;9.20;99.90;;;;;;6103152;23;20157;-89
2023/01/14 00:26:44;;;;;;;4.70;3.73;;;9.20;99.90;;;;;;6100845;23;20185;-85
2023/01/14 00:29:20;;;;;;;4.17;3.30;;;9.30;99.90;;;;;;6123768;23;20504;-85
2023/01/14 00:31:47;;;;;;;4.63;3.00;;;9.30;99.90;;;;;;6122980;23;20168;-87
2023/01/14 00:34:15;;;;;;;2.83;1.87;;;9.30;99.90;;;;;;6159700;23;20152;-88
2023/01/14 00:36:44;;;;;;;3.07;2.30;;;9.30;99.90;;;;;;6099634;23;20168;-87
2023/01/14 00:39:13;;;;;;;2.80;2.10;;;9.40;99.90;;;;;;6123672;23;20251;-87
2023/01/14 00:41:40;;;;;;;2.07;1.83;;;9.40;99.90;;;;;;6099692;23;20169;-88
2023/01/14 00:44:07;;;;;;;1.90;1.70;;;9.40;99.90;;;;;;6158898;23;20548;-85
2023/01/14 00:46:36;;;;;;;1.60;1.47;;;9.40;99.90;;;;;;6098359;23;20189;-85
2023/01/14 00:49:06;;;;;;;1.90;1.50;;;9.50;99.90;;;;;;6123590;23;20161;-89
2023/01/14 00:51:33;;;;;;;1.43;1.20;;;9.50;99.90;;;;;;6159584;23;20204;-88
2023/01/14 00:54:02;;;;;;;1.87;1.37;;;9.50;99.90;;;;;;6122507;23;20168;-83
2023/01/14 00:56:29;;;;;;;3.33;1.50;;;9.60;99.90;;;;;;6098112;23;20657;-84
2023/01/14 00:58:59;;;;;;;3.37;1.30;;;9.60;99.90;;;;;;6123504;23;20200;-83
2023/01/14 01:01:26;;;;;;;1.93;1.40;;;9.60;99.90;;;;;;6097141;23;20455;-82
2023/01/14 01:03:56;;;;;;;1.30;1.20;;;9.70;99.90;;;;;;6098564;23;20244;-82
2023/01/14 01:06:25;;;;;;;1.47;1.30;;;9.70;99.90;;;;;;6097911;23;20686;-82
2023/01/14 01:09:00;;;;;;;1.73;1.37;;;9.70;99.90;;;;;;6123073;23;20157;-82
2023/01/14 01:11:27;;;;;;;1.40;1.20;;;9.60;99.90;;;;;;6097412;23;20236;-82
2023/01/14 01:13:58;;;;;;;1.70;1.30;;;9.60;99.90;;;;;;6122735;23;20171;-82
2023/01/14 01:16:25;;;;;;;1.80;1.30;;;9.60;99.90;;;;;;6097210;23;20318;-81
2023/01/14 01:18:55;;;;;;;1.60;1.33;;;9.60;99.90;;;;;;6099034;23;20161;-84
2023/01/14 01:21:24;;;;;;;4.33;1.80;;;9.60;99.90;;;;;;6098594;23;20184;-89
2023/01/14 01:23:50;;;;;;;3.00;1.87;;;9.70;99.90;;;;;;6161775;23;20153;-89
2023/01/14 01:26:26;;;;;;;4.83;2.10;;;9.90;99.90;;;;;;6124329;23;20267;-89
2023/01/14 01:28:58;;;;;;;2.37;2.00;;;9.90;99.90;;;;;;6125413;23;20259;-89
2023/01/14 01:31:28;;;;;;;3.20;2.10;;;10.00;99.90;;;;;;6150418;23;20215;-89
2023/01/14 01:33:56;;;;;;;2.17;1.60;;;10.00;99.90;;;;;;6100468;23;20157;-86
2023/01/14 01:36:29;;;;;;;2.03;1.70;;;10.00;99.90;;;;;;6100917;23;20161;-90
2023/01/14 01:38:58;;;;;;;2.23;1.57;;;10.10;99.90;;;;;;6101524;23;20184;-84
2023/01/14 01:41:32;;;;;;;1.90;1.60;;;10.10;99.90;;;;;;6099069;23;20173;-87
2023/01/14 01:43:58;;;;;;;2.63;1.50;;;10.10;99.90;;;;;;6125267;23;20169;-82
2023/01/14 01:46:29;;;;;;;2.03;1.70;;;10.00;99.90;;;;;;6096310;23;20573;-81
2023/01/14 01:49:06;;;;;;;1.83;1.60;;;10.00;99.90;;;;;;6097952;23;20156;-82
2023/01/14 01:51:50;;;;;;;1.90;1.53;;;10.00;99.90;;;;;;6097707;23;20188;-81
2023/01/14 01:54:21;;;;;;;3.20;1.50;;;10.00;99.90;;;;;;6121189;23;20153;-81
2023/01/14 01:56:49;;;;;;;2.10;1.70;;;10.00;99.90;;;;;;6123199;23;20208;-81
2023/01/14 01:59:25;;;;;;;1.97;1.50;;;10.00;99.90;;;;;;6120842;23;20191;-82
2023/01/14 02:01:54;;;;;;;2.60;1.80;;;10.00;99.90;;;;;;6121084;23;20160;-82
2023/01/14 02:04:21;;;;;;;1.80;1.43;;;10.00;99.90;;;;;;6121852;23;20211;-81
2023/01/14 02:06:47;;;;;;;2.30;1.50;;;10.10;99.90;;;;;;6121465;23;20211;-89
2023/01/14 02:09:15;;;;;;;5.10;1.50;;;10.00;99.90;;;;;;6096842;23;20181;-83
2023/01/14 02:12:22;;;;;;;1.53;1.43;;;10.00;99.90;;;;;;6096353;23;20225;-83
2023/01/14 02:15:33;;;;;;;2.37;1.60;;;10.00;99.90;;;;;;6097696;23;20184;-83
2023/01/14 02:18:52;;;;;;;2.20;1.60;;;10.00;99.90;;;;;;6121952;23;20188;-82
2023/01/14 02:21:36;;;;;;;3.13;1.70;;;10.00;99.90;;;;;;6093923;23;20247;-83
2023/01/14 02:24:36;;;;;;;1.57;1.30;;;10.00;99.90;;;;;;6123458;23;20161;-88
2023/01/14 02:27:48;;;;;;;1.50;1.30;;;10.00;99.90;;;;;;6125387;23;20191;-87
2023/01/14 02:30:36;;;;;;;1.83;1.40;;;9.90;99.90;;;;;;6095480;23;20160;-90
2023/01/14 02:33:28;;;;;;;1.43;1.20;;;10.00;99.90;;;;;;6102221;23;20188;-90
2023/01/14 02:36:47;;;;;;;2.27;1.37;;;10.00;99.90;;;;;;6125798;23;20192;-89
2023/01/14 02:39:39;;;;;;;1.73;1.63;;;10.00;99.90;;;;;;6091780;23;20161;-89
2023/01/14 02:45:31;;;;;;;3.23;1.70;;;10.00;99.90;;;;;;6125022;23;20192;-87
2023/01/14 02:48:03;;;;;;;1.70;1.60;;;9.90;99.90;;;;;;6099720;23;20240;-88
2023/01/14 02:50:33;;;;;;;1.50;1.40;;;9.90;99.90;;;;;;6099307;23;20635;-88
2023/01/14 02:52:59;;;;;;;1.70;1.60;;;9.90;99.90;;;;;;6101819;23;20169;-88
2023/01/14 02:55:35;;;;;;;1.70;1.60;;;9.90;99.90;;;;;;6125786;23;20251;-88
2023/01/14 02:58:29;;;;;;;1.83;1.60;;;9.90;99.90;;;;;;6125380;23;20160;-86
2023/01/14 03:01:53;;;;;;;1.93;1.70;;;9.80;99.90;;;;;;6100338;23;20161;-87
2023/01/14 03:04:54;;;;;;;1.93;1.60;;;9.80;99.90;;;;;;6102839;23;20620;-90
2023/01/14 03:07:54;;;;;;;1.90;1.70;;;9.80;99.90;;;;;;6124858;23;20168;-87
2023/01/14 03:10:55;;;;;;;2.93;1.80;;;9.80;99.90;;;;;;6085799;23;20182;-87
2023/01/14 03:13:53;;;;;;;2.70;1.70;;;9.80;99.90;;;;;;6099723;23;20167;-87
2023/01/14 03:16:41;;;;;;;2.70;1.60;;;9.80;99.90;;;;;;6099805;23;20184;-89
2023/01/14 03:19:25;;;;;;;2.43;1.40;;;9.80;99.90;;;;;;6099640;23;20168;-88
2023/01/14 03:21:56;;;;;;;2.17;1.50;;;9.80;99.90;;;;;;6098962;23;20165;-88
2023/01/14 03:24:31;;;;;;;1.40;1.30;;;9.80;99.90;;;;;;6158641;23;20154;-88
2023/01/14 03:27:08;;;;;;;1.77;1.30;;;9.70;99.90;;;;;;6124532;23;20200;-87
2023/01/14 03:29:44;;;;;;;1.27;1.17;;;9.70;99.90;;;;;;6101234;23;20176;-86
2023/01/14 03:32:43;;;;;;;1.43;1.10;;;9.80;99.90;;;;;;6099724;23;20168;-87
2023/01/14 03:35:33;;;;;;;0.93;0.83;;;9.80;99.90;;;;;;6100017;23;20161;-87
2023/01/14 03:38:16;;;;;;;1.80;1.30;;;9.80;99.90;;;;;;6100581;23;20196;-86
2023/01/14 03:40:47;;;;;;;1.27;1.17;;;9.70;99.90;;;;;;6123265;23;20149;-88
2023/01/14 03:43:25;;;;;;;2.63;1.57;;;9.70;99.90;;;;;;6100572;23;20188;-87
2023/01/14 03:45:51;;;;;;;3.13;1.80;;;9.70;99.90;;;;;;6100839;23;20196;-87
2023/01/14 03:48:18;;;;;;;1.50;1.40;;;9.70;99.90;;;;;;6100460;23;20157;-88
2023/01/14 03:51:20;;;;;;;1.70;1.40;;;9.70;99.90;;;;;;6101349;23;20220;-88
2023/01/14 03:54:14;;;;;;;1.50;1.40;;;9.70;99.90;;;;;;6124705;23;20247;-80
2023/01/14 03:57:00;;;;;;;1.90;1.40;;;9.70;99.90;;;;;;6122906;23;20165;-81
2023/01/14 04:00:00;;;;;;;2.53;1.33;;;9.70;99.90;;;;;;6121997;23;20165;-81
2023/01/14 04:02:29;;;;;;;1.53;1.20;;;9.70;99.90;;;;;;6122400;23;20172;-81
2023/01/14 04:04:56;;;;;;;2.30;1.50;;;9.70;99.90;;;;;;6097542;23;20161;-81
2023/01/14 04:07:25;;;;;;;2.03;1.40;;;9.70;99.90;;;;;;6122665;23;20508;-81
2023/01/14 04:09:52;;;;;;;1.63;1.40;;;9.70;99.90;;;;;;6098674;23;20161;-81
2023/01/14 04:12:19;;;;;;;2.93;1.77;;;9.70;99.90;;;;;;6121595;23;20155;-80
2023/01/14 04:17:30;;;;;;;1.40;1.30;;;9.70;99.90;;;;;;6157473;23;20164;-81
2023/01/14 04:19:58;;;;;;;2.30;1.40;;;9.70;99.90;;;;;;6122339;23;20208;-81
2023/01/14 04:22:25;;;;;;;2.20;1.53;;;9.70;99.90;;;;;;6097371;23;20522;-80
2023/01/14 04:24:52;;;;;;;4.80;1.70;;;9.70;99.90;;;;;;6095232;23;20157;-81
2023/01/14 04:27:19;;;;;;;1.90;1.63;;;9.70;99.90;;;;;;6158446;23;20656;-81
2023/01/14 04:29:45;;;;;;;2.20;2.00;;;9.70;99.90;;;;;;6145875;23;20192;-80
2023/01/14 04:32:13;;;;;;;2.20;1.67;;;9.60;99.90;;;;;;6121290;23;20165;-81
2023/01/14 04:34:40;;;;;;;1.87;1.67;;;9.60;99.90;;;;;;6097136;23;20168;-81
2023/01/14 04:37:07;;;;;;;2.27;1.60;;;9.60;99.90;;;;;;6157893;23;20145;-81
2023/01/14 04:39:34;;;;;;;3.07;1.47;;;9.60;99.90;;;;;;6121876;23;20169;-81
2023/01/14 04:44:47;;;;;;;2.73;1.40;;;9.70;99.90;;;;;;6123919;23;20169;-87
2023/01/14 04:47:19;;;;;;;1.73;1.37;;;9.70;99.90;;;;;;6098549;23;20230;-80
2023/01/14 04:49:45;;;;;;;2.10;1.40;;;9.70;99.90;;;;;;6148338;23;20176;-87
2023/01/14 04:52:11;;;;;;;2.00;1.60;;;9.70;99.90;;;;;;6099319;23;20192;-88
2023/01/14 04:54:38;;;;;;;1.73;1.50;;;9.80;99.90;;;;;;6101836;23;20165;-88
2023/01/14 04:57:04;;;;;;;1.67;1.43;;;9.70;99.90;;;;;;6135817;23;20215;-88
2023/01/14 04:59:34;;;;;;;2.43;1.50;;;9.70;99.90;;;;;;6125390;23;20232;-81
2023/01/14 05:02:01;;;;;;;3.37;1.47;;;9.70;99.90;;;;;;6155969;23;20637;-81
2023/01/14 05:04:29;;;;;;;1.57;1.47;;;9.70;99.90;;;;;;6099494;23;20216;-88
2023/01/14 05:06:55;;;;;;;2.60;1.50;;;9.70;99.90;;;;;;6077639;23;20189;-87
2023/01/14 05:09:21;;;;;;;1.80;1.40;;;9.80;99.90;;;;;;6150793;23;20157;-87
2023/01/14 05:11:50;;;;;;;2.10;1.80;;;9.70;99.90;;;;;;6100658;23;20470;-87
2023/01/14 05:14:18;;;;;;;5.63;1.70;;;9.70;99.90;;;;;;6099968;23;20220;-87
2023/01/14 05:16:44;;;;;;;2.60;1.60;;;9.70;99.90;;;;;;6099676;23;20161;-87
2023/01/14 05:19:14;;;;;;;3.93;1.50;;;9.70;99.90;;;;;;6100530;23;20280;-87
2023/01/14 05:21:40;;;;;;;1.70;1.50;;;9.60;99.90;;;;;;6122015;23;20949;-81
2023/01/14 05:24:07;;;;;;;3.90;1.80;;;9.60;99.90;;;;;;6120593;23;20161;-80
2023/01/14 05:26:33;;;;;;;2.00;1.60;;;9.60;99.90;;;;;;6100029;23;20683;-87
2023/01/14 05:28:59;;;;;;;5.10;1.73;;;9.70;99.90;;;;;;6125608;23;20157;-87
2023/01/14 05:31:26;;;;;;;2.43;1.67;;;9.60;99.90;;;;;;6099227;23;20525;-85
2023/01/14 05:33:52;;;;;;;1.70;1.50;;;9.60;99.90;;;;;;6123276;23;20192;-81
2023/01/14 05:36:18;;;;;;;2.17;1.63;;;9.60;99.90;;;;;;6120141;23;20161;-81
2023/01/14 05:38:44;;;;;;;3.20;1.60;;;9.60;99.90;;;;;;6121822;23;20173;-81
2023/01/14 05:41:14;;;;;;;1.70;1.60;;;9.60;99.90;;;;;;6120763;23;20438;-80
2023/01/14 05:46:31;;;;;;;1.93;1.60;;;9.60;99.90;;;;;;6122767;23;20719;-80
2023/01/14 05:48:58;;;;;;;2.10;1.63;;;9.50;99.90;;;;;;6122497;23;20244;-81
2023/01/14 05:51:25;;;;;;;2.90;1.53;;;9.50;99.90;;;;;;6096718;23;20161;-81
2023/01/14 05:53:51;;;;;;;1.67;1.13;;;9.50;99.90;;;;;;6120455;23;20157;-81
2023/01/14 05:56:19;;;;;;;1.10;1.00;;;9.50;99.90;;;;;;6121829;23;20613;-81
2023/01/14 05:58:45;;;;;;;1.77;1.07;;;9.50;99.90;;;;;;6096867;23;20169;-81
2023/01/14 06:06:53;;;;;;;1.80;1.00;;;9.50;99.90;;;;;;6120975;23;20191;-80
2023/01/14 06:09:20;;;;;;;0.80;0.70;;;9.60;99.90;;;;;;6120532;23;20169;-81
2023/01/14 06:12:01;;;;;;;1.20;1.00;;;9.80;99.90;;;;;;6120980;23;20209;-81
2023/01/14 06:14:33;;;;;;;1.10;0.80;;;9.90;99.90;;;;;;6121438;23;20243;-81
2023/01/14 06:17:05;;;;;;;1.93;1.20;;;9.80;99.90;;;;;;6120008;23;20173;-81
2023/01/14 06:19:33;;;;;;;1.60;1.40;;;9.90;99.90;;;;;;6097444;23;20169;-81
2023/01/14 06:22:00;;;;;;;1.77;1.10;;;9.90;99.90;;;;;;6095482;23;20168;-81
2023/01/14 06:24:27;;;;;;;1.50;1.30;;;9.90;99.90;;;;;;6119916;23;20165;-81
2023/01/14 06:26:53;;;;;;;1.20;1.07;;;9.90;99.90;;;;;;6155842;23;20624;-80
2023/01/14 06:29:22;;;;;;;1.23;0.93;;;9.90;99.90;;;;;;6096547;23;20157;-80
2023/01/14 06:31:50;;;;;;;1.83;1.20;;;10.00;99.90;;;;;;6096341;23;20259;-80
2023/01/14 06:34:17;;;;;;;1.40;1.20;;;10.00;99.90;;;;;;6124561;23;20165;-88
2023/01/14 06:36:43;;;;;;;2.40;1.60;;;10.00;99.90;;;;;;6100889;23;20223;-88
2023/01/14 06:39:09;;;;;;;3.63;1.90;;;10.00;99.90;;;;;;6101634;23;20307;-88
2023/01/14 06:41:36;;;;;;;2.00;1.40;;;10.00;99.90;;;;;;6125045;23;20212;-88
2023/01/14 06:44:03;;;;;;;1.47;1.23;;;10.00;99.90;;;;;;6123192;23;20176;-88
2023/01/14 06:46:30;;;;;;;1.47;1.13;;;10.00;99.90;;;;;;6100262;23;20185;-81
2023/01/14 06:48:59;;;;;;;1.80;1.40;;;10.00;99.90;;;;;;6096247;23;20157;-81
2023/01/14 06:51:25;;;;;;;1.67;1.17;;;10.00;99.90;;;;;;6160561;23;20637;-88
2023/01/14 06:53:53;;;;;;;1.60;1.40;;;10.00;99.90;;;;;;6148921;23;20163;-89
2023/01/14 06:56:22;;;;;;;2.97;1.37;;;10.00;99.90;;;;;;6099348;23;20176;-81
2023/01/14 06:58:50;;;;;;;2.10;1.40;;;10.00;99.90;;;;;;6156476;23;20153;-81
2023/01/14 07:01:23;;;;;;;1.53;1.40;;;10.00;99.90;;;;;;6096753;23;20165;-81
2023/01/14 07:03:53;;;;;;;2.07;1.77;;;10.10;99.90;;;;;;6100138;23;20164;-89
2023/01/14 07:06:20;;;;;;;2.13;1.87;;;10.20;99.90;;;;;;6100480;23;20717;-90
2023/01/14 07:08:49;;;;;;;3.10;2.40;;;10.20;99.90;;;;;;6101287;23;20160;-89
2023/01/14 07:11:16;;;;;;;6.43;1.70;;;10.30;99.90;;;;;;6101553;23;20165;-89
2023/01/14 07:13:43;;;;;;;3.67;1.80;;;10.20;99.90;;;;;;6098515;23;20161;-81
2023/01/14 07:16:09;;;;;;;1.47;1.37;;;10.20;99.90;;;;;;6120786;23;20497;-80
2023/01/14 07:18:36;;;;;;;4.43;1.70;;;10.30;99.90;;;;;;6121529;23;20169;-89
2023/01/14 07:21:04;;;;;;;2.20;1.70;;;10.30;99.90;;;;;;6099435;23;20160;-89
2023/01/14 07:23:30;;;;;;;2.47;1.67;;;10.30;99.90;;;;;;6094917;23;20580;-81
2023/01/14 07:26:00;;;;;;;1.93;1.50;;;10.30;99.90;;;;;;6147952;23;20185;-90
2023/01/14 07:28:28;;;;;;;1.60;1.20;;;10.40;99.90;;;;;;6128429;23;20796;-89
2023/01/14 07:30:55;;;;;;;1.30;1.17;;;10.40;99.90;;;;;;6102070;23;20161;-90
2023/01/14 07:33:21;;;;;;;4.30;1.47;;;10.40;99.90;;;;;;6100907;23;20164;-90
2023/01/14 07:35:52;;;;;;;1.57;1.40;;;10.40;99.90;;;;;;6103641;23;20220;-90
2023/01/14 07:38:20;;;;;;;1.40;1.20;;;10.40;99.90;;;;;;6102603;23;20200;-89
2023/01/14 07:40:46;;;;;;;1.80;1.30;;;10.40;99.90;;;;;;6074704;23;20311;-81
2023/01/14 07:43:13;;;;;;;2.03;1.57;;;10.40;99.90;;;;;;6121968;23;20145;-81
2023/01/14 07:45:40;;;;;;;1.60;1.37;;;10.40;99.90;;;;;;6160350;23;20196;-90
2023/01/14 07:48:09;;;;;;;2.50;1.50;;;10.50;99.90;;;;;;6127748;23;20160;-90
2023/01/14 07:50:36;;;;;;;1.07;1.00;;;10.50;99.90;;;;;;6101394;23;20477;-81
2023/01/14 07:53:06;;;;;;;1.30;1.20;;;10.50;99.90;;;;;;6098553;23;20248;-81
2023/01/14 07:55:37;;;;;;;1.70;1.23;;;10.50;99.90;;;;;;6100191;23;20157;-90
2023/01/14 07:58:09;;;;;;;1.40;1.20;;;10.50;99.90;;;;;;6128123;23;20161;-90
2023/01/14 08:00:36;;;;;;;1.10;1.00;;;10.50;99.90;;;;;;6102810;23;20604;-88
2023/01/14 08:03:03;;;;;;;1.70;1.20;;;10.50;99.90;;;;;;6100852;23;20196;-90
2023/01/14 08:05:34;;;;;;;1.70;1.37;;;10.50;99.90;;;;;;6102374;23;20502;-90
2023/01/14 08:08:04;;;;;;;1.50;1.20;;;10.50;99.90;;;;;;6162006;23;20152;-90
2023/01/14 08:10:31;;;;;;;2.13;1.20;;;10.50;99.90;;;;;;6100743;23;20176;-89
2023/01/14 08:12:59;;;;;;;1.60;1.30;;;10.50;99.90;;;;;;6100120;23;20165;-90
2023/01/14 08:15:25;;;;;;;1.37;1.20;;;10.50;99.90;;;;;;6098382;23;20227;-81
2023/01/14 08:17:55;;;;;;;1.53;1.13;;;10.50;99.90;;;;;;6097069;23;20176;-81
2023/01/14 08:20:22;;;;;;;3.17;1.23;;;10.50;99.90;;;;;;6124582;23;20191;-89
2023/01/14 08:23:03;;;;;;;2.10;1.50;;;10.50;99.90;;;;;;6099101;23;20540;-81
2023/01/14 08:25:33;;;;;;;1.87;1.27;;;10.50;99.90;;;;;;6122130;23;20181;-81
2023/01/14 08:28:01;;;;;;;1.93;1.27;;;10.50;99.90;;;;;;6097065;23;20161;-81
2023/01/14 08:30:28;;;;;;;2.73;1.50;;;10.60;99.90;;;;;;6121549;23;20172;-81
2023/01/14 08:32:55;;;;;;;1.47;1.30;;;10.60;99.90;;;;;;6099606;23;20215;-89
2023/01/14 08:35:25;;;;;;;1.67;1.37;;;10.60;99.90;;;;;;6101756;23;20176;-90
2023/01/14 08:37:51;;;;;;;1.63;1.20;;;10.60;99.90;;;;;;6123215;23;20165;-81
2023/01/14 08:40:23;;;;;;;1.43;1.30;;;10.60;99.90;;;;;;6096894;23;20165;-81
2023/01/14 08:42:51;;;;;;;1.60;1.30;;;10.60;99.90;;;;;;6097809;23;20172;-81
2023/01/14 08:45:19;;;;;;;1.73;1.20;;;10.60;99.90;;;;;;6122604;23;20196;-81
2023/01/14 08:47:46;;;;;;;1.47;1.13;;;10.60;99.90;;;;;;6121412;23;20657;-81
2023/01/14 08:50:16;;;;;;;1.80;1.40;;;10.60;99.90;;;;;;6121550;23;20168;-81
2023/01/14 08:52:44;;;;;;;1.80;1.30;;;10.70;99.90;;;;;;6147513;23;20376;-81
2023/01/14 08:55:13;;;;;;;2.13;1.50;;;10.70;99.90;;;;;;6147080;23;20440;-81
2023/01/14 08:57:48;;;;;;;1.87;1.27;;;10.70;99.90;;;;;;6124421;23;20571;-81
2023/01/14 09:00:59;;;;;;;1.63;1.20;;;10.80;99.90;;;;;;6097298;23;20188;-90
2023/01/14 09:04:33;;;;;;;3.10;1.30;;;10.80;99.90;;;;;;6076254;23;20188;-89
2023/01/14 09:18:12;;;;;;;2.03;1.00;;;10.80;99.90;;;;;;6120165;23;20169;-81
2023/01/14 09:20:42;;;;;;;1.67;1.10;;;10.70;99.90;;;;;;6121663;23;20164;-81
2023/01/14 09:24:49;;;;;;;3.47;1.53;;;10.60;99.90;;;;;;6098109;23;20763;-89
2023/01/14 09:27:16;;;;;;;2.27;1.30;;;10.60;99.90;;;;;;6075087;23;20172;-90
2023/01/14 09:29:42;;;;;;;1.50;1.30;;;10.60;99.90;;;;;;6097228;23;20221;-90
2023/01/14 09:32:15;;;;;;;1.67;1.20;;;10.70;99.90;;;;;;6099872;23;20215;-89
2023/01/14 09:34:48;;;;;;;2.03;1.30;;;10.70;99.90;;;;;;6122896;23;20244;-82
2023/01/14 09:37:26;;;;;;;1.40;1.30;;;10.70;99.90;;;;;;6099063;23;20165;-81
2023/01/14 09:40:18;;;;;;;1.97;1.50;;;10.80;99.90;;;;;;6122979;23;20153;-82
2023/01/14 09:42:52;;;;;;;1.70;1.50;;;10.80;99.90;;;;;;6159351;23;20588;-82
2023/01/14 09:45:30;;;;;;;1.87;1.20;;;10.80;99.90;;;;;;6144995;23;20201;-82
2023/01/14 09:48:19;;;;;;;2.47;1.43;;;10.90;99.90;;;;;;6098057;23;20157;-91
2023/01/14 09:51:21;;;;;;;1.97;1.50;;;10.90;99.90;;;;;;6100607;23;20861;-91
2023/01/14 09:53:55;;;;;;;1.40;1.30;;;11.00;99.90;;;;;;6080265;23;20176;-90
2023/01/14 09:56:51;;;;;;;1.40;1.20;;;11.00;99.90;;;;;;6102064;23;20160;-92
2023/01/14 09:59:46;;;;;;;2.40;1.70;;;11.10;99.90;;;;;;6123729;23;20164;-91
2023/01/14 10:02:40;;;;;;;5.50;1.57;;;11.10;99.90;;;;;;6123368;23;20204;-88
2023/01/14 10:05:33;;;;;;;3.53;1.70;;;11.10;99.90;;;;;;6106047;23;20181;-82
2023/01/14 10:08:11;;;;;;;1.83;1.70;;;11.20;99.90;;;;;;6093086;23;20169;-81
2023/01/14 10:10:46;;;;;;;1.80;1.60;;;11.10;99.90;;;;;;6119757;23;20161;-82
2023/01/14 10:14:10;;;;;;;2.60;1.83;;;11.10;99.90;;;;;;6095123;23;20164;-81
2023/01/14 10:17:30;;;;;;;1.70;1.60;;;11.10;99.90;;;;;;6096593;23;20156;-90
2023/01/14 10:24:00;;;;;;;3.43;1.70;;;11.00;99.90;;;;;;6081457;23;20158;-81
2023/01/14 10:26:32;;;;;;;2.03;1.73;;;11.00;99.90;;;;;;6035283;23;20194;-81
2023/01/14 10:29:19;;;;;;;2.67;1.90;;;11.00;99.90;;;;;;6060820;23;20245;-81
2023/01/14 10:32:04;;;;;;;2.40;1.97;;;11.10;99.90;;;;;;6085660;23;20158;-89
2023/01/14 10:35:00;;;;;;;2.13;1.80;;;11.10;99.90;;;;;;6091775;23;20517;-81
2023/01/14 10:38:20;;;;;;;3.07;1.93;;;11.10;99.90;;;;;;6126575;23;20161;-89
2023/01/14 10:41:10;;;;;;;2.43;2.03;;;11.00;99.90;;;;;;6123906;23;20168;-88
2023/01/14 10:45:53;;;;;;;2.20;1.83;;;11.00;99.90;;;;;;6125138;23;20176;-87
2023/01/14 10:47:55;;;;;;;2.20;2.00;;;11.10;99.90;;;;;;6102732;23;20176;-80
2023/01/14 10:50:28;;;;;;;3.10;2.30;;;11.10;99.90;;;;;;6154678;23;20400;-80
2023/01/14 10:53:23;;;;;;;2.00;1.80;;;11.10;99.90;;;;;;6119272;23;20365;-80
2023/01/14 10:56:01;;;;;;;2.80;2.47;;;11.10;99.90;;;;;;6096119;23;20165;-80
2023/01/14 10:58:46;;;;;;;3.30;2.00;;;11.20;99.90;;;;;;6120601;23;20157;-80
2023/01/14 11:01:15;;;;;;;2.23;2.03;;;11.20;99.90;;;;;;6130878;23;20159;-80
2023/01/14 11:03:51;;;;;;;1.70;1.60;;;11.20;99.90;;;;;;6123120;23;20499;-80
2023/01/14 11:06:18;;;;;;;1.70;1.60;;;11.30;99.90;;;;;;6122231;23;20184;-80
2023/01/14 11:08:50;;;;;;;2.30;1.80;;;11.50;99.90;;;;;;6098751;23;20159;-79
2023/01/14 11:12:00;;;;;;;2.63;1.70;;;11.60;99.90;;;;;;6099172;23;20188;-87
2023/01/14 11:14:39;;;;;;;1.73;1.63;;;11.80;99.90;;;;;;6123186;23;20180;-88
2023/01/14 11:17:32;;;;;;;1.77;1.47;;;11.80;99.90;;;;;;6158927;23;20184;-88
2023/01/14 11:20:24;;;;;;;1.63;1.50;;;11.80;99.90;;;;;;6099791;23;20163;-85
2023/01/14 11:23:36;;;;;;;1.60;1.47;;;11.80;99.90;;;;;;6093870;23;20171;-78
2023/01/14 11:26:26;;;;;;;1.90;1.40;;;11.90;99.90;;;;;;6148778;23;20188;-87
2023/01/14 11:29:37;;;;;;;1.57;1.13;;;11.90;99.90;;;;;;6123722;23;20161;-86
2023/01/14 11:32:21;;;;;;;1.87;1.27;;;11.80;99.90;;;;;;6098991;23;20668;-86
2023/01/14 11:35:15;;;;;;;2.73;1.70;;;11.80;99.90;;;;;;6094494;23;20217;-80
2023/01/14 11:37:48;;;;;;;1.80;1.20;;;11.80;99.90;;;;;;6119451;23;20177;-78
2023/01/14 11:44:01;;;;;;;3.10;1.67;;;11.70;99.90;;;;;;6120694;23;20164;-88
2023/01/14 11:47:26;;;;;;;;;;;;;;;;;;;;;
2023/01/14 11:50:19;;;;;;;2.20;1.80;;;11.70;99.90;;;;;;6058026;23;20153;-81
2023/01/14 11:53:18;;;;;;;2.17;1.90;;;11.60;99.90;;;;;;6123985;23;20213;-86
2023/01/14 11:55:49;;;;;;;3.27;1.90;;;11.60;99.90;;;;;;6118187;23;20161;-81
2023/01/14 11:58:22;;;;;;;4.47;2.00;;;11.60;99.90;;;;;;6121920;23;20192;-81
2023/01/14 12:01:50;;;;;;;3.83;1.87;;;11.60;99.90;;;;;;6100907;23;20167;-82
2023/01/14 12:05:22;;;;;;;2.33;1.93;;;11.60;99.90;;;;;;6014214;23;20265;-89
2023/01/14 12:08:06;;;;;;;3.23;1.90;;;11.50;99.90;;;;;;6092610;23;20174;-89
2023/01/14 12:11:42;;;;;;;3.33;2.27;;;11.60;99.90;;;;;;6037072;23;20166;-79
2023/01/14 12:17:50;;;;;;;2.63;2.20;;;11.50;99.90;;;;;;6087347;23;20174;-88
2023/01/14 12:20:26;;;;;;;2.87;2.27;;;11.50;99.90;;;;;;6041065;23;20185;-90
2023/01/14 12:23:01;;;;;;;3.10;2.43;;;11.50;99.90;;;;;;6042028;23;20158;-89
2023/01/14 12:25:36;;;;;;;2.60;2.27;;;11.50;99.90;;;;;;6086716;23;20189;-89
2023/01/14 12:28:36;;;;;;;2.60;2.20;;;11.50;99.90;;;;;;6061710;23;20248;-82
2023/01/14 12:31:38;;;;;;;2.30;2.10;;;11.50;99.90;;;;;;6062373;23;20154;-81
2023/01/14 12:34:43;;;;;;;2.63;2.07;;;11.50;99.90;;;;;;6055446;23;20161;-82
2023/01/14 12:47:51;;;;;;;1.97;1.60;;;11.40;99.90;;;;;;6125272;23;20590;-88
2023/01/14 12:50:18;;;;;;;2.50;1.53;;;11.40;99.90;;;;;;6101106;23;20203;-88
2023/01/14 12:52:53;;;;;;;2.50;1.67;;;11.40;99.90;;;;;;6099341;23;20160;-87
2023/01/14 12:55:29;;;;;;;2.00;1.60;;;11.40;99.90;;;;;;6123717;23;20168;-88
2023/01/14 12:57:59;;;;;;;2.20;2.00;;;11.40;99.90;;;;;;6122248;23;20219;-80
2023/01/14 13:00:36;;;;;;;2.70;2.17;;;11.40;99.90;;;;;;6122345;23;20172;-87
2023/01/14 13:03:17;;;;;;;3.23;2.60;;;11.30;99.90;;;;;;6121705;23;20161;-88
2023/01/14 13:10:00;;;;;;;2.37;1.60;;;11.30;99.90;;;;;;6083301;23;20173;-86
2023/01/14 13:15:18;;;;;;;1.20;1.07;;;11.20;99.90;;;;;;6133035;23;20207;-73
2023/01/14 13:18:00;;;;;;;3.07;1.03;;;11.30;99.90;;;;;;6153620;23;20227;-71
2023/01/14 13:20:29;;;;;;;1.63;1.10;;;11.20;99.90;;;;;;6152576;23;20235;-71
2023/01/14 13:23:05;;;;;;;1.77;1.00;;;11.20;99.90;;;;;;6120048;23;20284;-71
2023/01/14 13:25:37;;;;;;;1.30;1.00;;;11.30;99.90;;;;;;6142034;23;20180;-69
2023/01/14 13:28:15;;;;;;;1.73;0.80;;;11.20;99.90;;;;;;6154274;23;20495;-71
2023/01/14 13:31:13;;;;;;;1.20;1.10;;;11.20;99.90;;;;;;6092156;23;20215;-70
2023/01/14 13:33:39;;;;;;;1.97;1.27;;;11.30;99.90;;;;;;6117280;23;20547;-71
2023/01/14 13:36:12;;;;;;;2.50;0.97;;;11.30;99.90;;;;;;6118989;23;20191;-72
2023/01/14 13:38:59;;;;;;;1.33;0.80;;;11.30;99.90;;;;;;6155078;23;20160;-69
2023/01/14 13:41:46;;;;;;;2.70;0.90;;;11.30;99.90;;;;;;6095079;23;20808;-71
2023/01/14 13:44:38;;;;;;;0.97;0.87;;;11.40;99.90;;;;;;6154944;23;20164;-70
2023/01/14 13:47:25;;;;;;;0.57;0.50;;;11.40;99.90;;;;;;6117732;23;20181;-69
2023/01/14 13:50:23;;;;;;;0.70;0.60;;;11.40;99.90;;;;;;6119824;23;20660;-71
2023/01/14 13:53:02;;;;;;;2.90;0.70;;;11.50;99.90;;;;;;6156061;23;20190;-71
2023/01/14 13:55:35;;;;;;;2.93;0.70;;;11.50;99.90;;;;;;6154530;23;20712;-71
2023/01/14 13:58:47;;;;;;;0.90;0.90;;;11.50;99.90;;;;;;6118426;23;20165;-71
2023/01/14 14:01:32;;;;;;;1.10;1.00;;;11.50;99.90;;;;;;6139179;23;20591;-72
2023/01/14 14:04:03;;;;;;;1.63;1.10;;;11.50;99.90;;;;;;6150679;23;20234;-72
2023/01/14 14:06:31;;;;;;;1.77;1.17;;;11.50;99.90;;;;;;6118025;23;20605;-72
2023/01/14 14:09:14;;;;;;;1.33;1.23;;;11.50;99.90;;;;;;6120008;23;20204;-72
2023/01/14 14:12:08;;;;;;;1.70;1.30;;;11.50;99.90;;;;;;6155311;23;20153;-69
2023/01/14 14:14:42;;;;;;;1.80;1.20;;;11.40;99.90;;;;;;6118378;23;20160;-72
2023/01/14 14:17:37;;;;;;;1.40;1.10;;;11.40;99.90;;;;;;6118527;23;20475;-72
2023/01/14 14:20:12;;;;;;;1.50;1.23;;;11.30;99.90;;;;;;6154877;23;20172;-71
2023/01/14 14:23:02;;;;;;;1.53;0.90;;;11.30;99.90;;;;;;6092758;23;20199;-72
2023/01/14 14:25:44;;;;;;;2.93;1.30;;;11.20;99.90;;;;;;6093088;23;20240;-71
2023/01/14 14:28:24;;;;;;;1.60;1.00;;;11.20;99.90;;;;;;6094791;23;20156;-71
2023/01/14 14:31:06;;;;;;;0.97;0.87;;;11.10;99.90;;;;;;6119097;23;20491;-69
2023/01/14 14:33:39;;;;;;;1.70;1.10;;;11.10;99.90;;;;;;6120030;23;20277;-72
2023/01/14 14:36:08;;;;;;;0.87;0.87;;;11.10;99.90;;;;;;6093315;23;20161;-69
2023/01/14 14:38:37;;;;;;;1.03;0.83;;;11.00;99.90;;;;;;6119058;23;20180;-71
2023/01/14 14:41:15;;;;;;;1.80;0.90;;;11.00;99.90;;;;;;6119744;23;20188;-71
2023/01/14 14:43:55;;;;;;;2.07;1.10;;;11.00;99.90;;;;;;6119208;23;20169;-72